Latest Weather Observations for Condobolin Airport

IDN60801

Issued at 4:52 pm EST Thursday 18 July 2019 (issued every 10 minutes, with the page automatically refreshed every 10 minutes)

About weather observations | Map of weather stations | Latest weather observations for NSW | Other Formats
Station Details ID: 050137 Name: CONDOBOLIN AIRPORT AWS Lat: -33.07 Lon: 147.21 Height: 192.6 m
Data from the previous 72 hours. | See also: Recent months at Condobolin Airport
Date/Time
EST
Temp
°C
App
Temp
°C
Dew
Point
°C
Rel
Hum
%
Delta-T
°C
Wind Press
QNH
hPa
Press
MSL
hPa
Rain since
9am
mm
Dir  Spd
km/h
Gust
km/h
Spd
kts
Gust
kts
18/04:30pm 12.9 9.8 3.6 53 4.2 SW 9 13 5 7 1019.8 1020.1 0.0
18/04:00pm 12.7 9.7 3.9 55 4.0 SW 9 13 5 7 1019.9 1020.2 0.0
18/03:30pm 12.8 8.2 3.7 54 4.1 SW 17 24 9 13 1020.0 1020.3 0.0
18/03:00pm 12.7 7.6 3.9 55 4.0 SW 20 26 11 14 1020.1 1020.4 0.0
18/02:30pm 12.6 7.7 4.1 56 3.9 WSW 19 28 10 15 1020.1 1020.4 0.0
18/02:00pm 12.6 7.4 3.6 54 4.1 WSW 20 32 11 17 1020.2 1020.5 0.0
18/01:30pm 12.9 6.9 3.6 53 4.2 W 24 30 13 16 1020.5 1020.8 0.0
18/01:00pm 12.6 7.1 4.1 56 3.9 W 22 28 12 15 1020.5 1020.8 0.0
18/12:30pm 12.6 6.8 4.6 58 3.7 WSW 24 32 13 17 1020.6 1020.9 0.0
18/12:00pm 12.5 7.7 4.5 58 3.7 WSW 19 30 10 16 1020.8 1021.1 0.0
18/11:30am 12.8 7.8 4.8 58 3.7 W 20 26 11 14 1021.1 1021.4 0.0
18/11:00am 11.3 6.3 4.5 63 3.1 WSW 20 26 11 14 1021.5 1021.8 0.0
18/10:30am 11.0 6.7 5.1 67 2.7 WSW 17 28 9 15 1021.6 1021.9 0.0
18/10:00am 10.6 5.8 4.7 67 2.7 WSW 19 24 10 13 1021.6 1021.9 0.0
18/09:30am 10.5 6.8 6.1 74 2.1 SW 15 20 8 11 1021.3 1021.6 0.0
18/09:00am 10.2 7.0 6.7 79 1.7 WSW 13 15 7 8 1021.1 1021.4 0.0
18/08:30am 9.6 6.7 6.7 82 1.4 W 11 15 6 8 1020.8 1021.1 0.0
18/08:00am 9.4 6.9 6.7 83 1.3 WSW 9 13 5 7 1020.6 1020.9 0.0
18/07:30am 9.3 6.4 6.4 82 1.4 WSW 11 15 6 8 1020.6 1020.9 0.0
18/07:00am 9.2 6.3 6.5 83 1.3 WSW 11 15 6 8 1020.5 1020.8 0.0
18/06:30am 9.3 6.4 6.4 82 1.4 WSW 11 17 6 9 1020.1 1020.4 0.0
18/06:00am 9.3 5.6 6.4 82 1.4 W 15 19 8 10 1019.7 1020.0 0.0
18/05:30am 9.2 5.1 6.1 81 1.4 WSW 17 24 9 13 1019.6 1019.9 0.0
18/05:00am 8.6 5.2 5.9 83 1.2 W 13 19 7 10 1019.0 1019.3 0.0
18/04:30am 8.0 4.4 5.1 82 1.3 W 13 15 7 8 1018.9 1019.2 0.0
18/04:00am 7.0 4.1 4.5 84 1.1 WNW 9 11 5 6 1019.1 1019.4 0.0
18/03:30am 6.9 3.9 4.2 83 1.2 WNW 9 11 5 6 1019.3 1019.7 0.0
18/03:00am 7.9 4.6 4.7 80 1.4 WNW 11 15 6 8 1019.3 1019.7 0.0
18/02:30am 7.7 4.3 4.1 78 1.6 NW 11 13 6 7 1019.3 1019.7 0.0
18/02:00am 9.5 5.9 4.9 73 2.1 W 13 17 7 9 1019.2 1019.6 0.0
18/01:30am 9.6 6.4 5.0 73 2.1 WNW 11 13 6 7 1019.3 1019.7 0.0
18/01:00am 9.9 6.7 5.1 72 2.2 WSW 11 13 6 7 1019.3 1019.7 0.0
18/12:30am 9.9 6.3 5.1 72 2.2 WNW 13 15 7 8 1019.4 1019.8 0.0
18/12:00am 10.6 7.0 4.9 68 2.6 W 13 17 7 9 1019.7 1020.0 0.0
 
Date/Time
EST
Temp
°C
App
Temp
°C
Dew
Point
°C
Rel
Hum
%
Delta-T
°C
Wind Press
QNH
hPa
Press
MSL
hPa
Rain since
9am
mm
Dir  Spd
km/h
Gust
km/h
Spd
kts
Gust
kts
17/11:30pm 10.7 6.3 4.8 67 2.7 W 17 20 9 11 1019.7 1020.0 0.0
17/11:00pm 10.9 6.9 4.8 66 2.8 W 15 20 8 11 1019.9 1020.2 0.0
17/10:30pm 11.1 6.7 4.6 64 3.0 W 17 22 9 12 1019.9 1020.2 0.0
17/10:00pm 11.1 6.7 4.6 64 3.0 WNW 17 22 9 12 1019.7 1020.0 0.0
17/09:30pm 10.2 7.4 5.2 71 2.3 W 9 17 5 9 1019.8 1020.1 0.0
17/09:00pm 8.2 5.9 4.8 79 1.5 NW 6 7 3 4 1019.8 1020.1 0.0
17/08:30pm 7.7 6.5 4.5 80 1.4 CALM 0 0 0 0 1019.9 1020.2 0.0
17/08:00pm 6.8 4.0 3.2 78 1.5 NW 7 9 4 5 1020.0 1020.3 0.0
17/07:30pm 7.1 4.3 3.0 75 1.7 NNW 7 9 4 5 1019.8 1020.1 0.0
17/07:00pm 8.4 5.6 3.3 70 2.2 NNW 7 9 4 5 1019.7 1020.0 0.0
17/06:30pm 10.1 7.3 2.9 61 3.1 WSW 7 9 4 5 1019.8 1020.1 0.0
17/06:00pm 10.9 6.9 3.0 58 3.5 WSW 13 20 7 11 1019.6 1019.9 0.0
17/05:30pm 11.8 6.5 3.1 55 3.9 WSW 20 28 11 15 1019.6 1019.9 0.0
17/05:00pm 12.8 7.6 3.7 54 4.1 WSW 20 28 11 15 1019.6 1019.9 0.0
17/04:30pm 13.1 8.1 3.7 53 4.3 WSW 19 24 10 13 1019.6 1019.9 0.0
17/04:00pm 13.8 8.2 3.3 49 4.7 W 22 30 12 16 1019.3 1019.7 0.0
17/03:30pm 14.1 8.1 3.6 49 4.8 W 24 32 13 17 1019.4 1019.8 0.0
17/03:00pm 12.9 7.7 3.8 54 4.1 WSW 20 32 11 17 1019.7 1020.0 0.0
17/02:30pm 13.5 8.1 4.4 54 4.2 SW 22 30 12 16 1019.9 1020.2 0.0
17/02:00pm 14.0 9.0 4.6 53 4.4 WSW 20 30 11 16 1020.1 1020.4 0.0
17/01:30pm 14.1 9.1 4.7 53 4.4 WSW 20 30 11 16 1020.4 1020.7 0.0
17/01:00pm 13.8 9.4 4.7 54 4.2 WSW 17 24 9 13 1021.0 1021.3 0.0
17/12:30pm 12.8 7.6 3.7 54 4.1 WSW 20 32 11 17 1021.5 1021.8 0.0
17/12:00pm 12.6 6.8 4.3 57 3.8 WSW 24 30 13 16 1022.2 1022.5 0.0
17/11:30am 12.1 6.6 3.9 57 3.7 WSW 22 30 12 16 1022.8 1023.1 0.0
17/11:00am 11.8 6.4 4.3 60 3.4 SW 22 32 12 17 1023.1 1023.4 0.0
17/10:30am 11.5 6.4 4.3 61 3.3 SW 20 28 11 15 1023.3 1023.6 0.0
17/10:00am 11.4 6.4 4.4 62 3.2 WSW 20 30 11 16 1023.4 1023.7 0.0
17/09:30am 11.4 7.2 5.5 67 2.8 WSW 17 24 9 13 1023.6 1024.0 0.0
17/09:00am 11.0 6.8 5.5 69 2.5 WSW 17 24 9 13 1023.6 1024.0 0.0
17/08:30am 10.8 7.3 5.3 69 2.5 WSW 13 19 7 10 1023.3 1023.6 0.0
17/08:00am 10.5 7.0 5.5 71 2.3 WSW 13 15 7 8 1023.3 1023.6 0.0
17/07:30am 10.4 6.9 5.4 71 2.3 WSW 13 20 7 11 1023.0 1023.3 0.0
17/07:00am 10.4 6.5 5.4 71 2.3 WSW 15 20 8 11 1022.8 1023.1 0.0
17/06:30am 10.4 6.1 5.4 71 2.3 WSW 17 20 9 11 1022.6 1022.9 0.0
17/06:00am 10.3 6.1 5.7 73 2.1 WSW 17 20 9 11 1022.5 1022.8 0.0
17/05:30am 10.4 7.0 5.8 73 2.1 WSW 13 17 7 9 1022.5 1022.8 0.0
17/05:00am 10.3 6.9 6.1 75 2.0 WSW 13 17 7 9 1022.6 1022.9 0.0
17/04:30am 10.4 7.0 6.0 74 2.1 WSW 13 19 7 10 1022.9 1023.2 0.0
17/04:00am 10.4 7.4 6.0 74 2.0 WSW 11 15 6 8 1023.0 1023.3 0.0
17/03:30am 10.5 7.1 5.9 73 2.1 WSW 13 19 7 10 1023.1 1023.4 0.0
17/03:00am 10.3 6.5 5.9 74 2.0 W 15 20 8 11 1023.2 1023.5 0.0
17/02:30am 10.4 6.6 6.0 74 2.1 W 15 20 8 11 1023.6 1024.0 0.0
17/02:00am 10.4 7.4 6.2 75 2.0 WSW 11 13 6 7 1023.8 1024.2 0.0
17/01:30am 10.4 7.4 6.0 74 2.1 SW 11 17 6 9 1024.0 1024.4 0.0
17/01:00am 10.5 7.5 5.9 73 2.1 WSW 11 15 6 8 1024.1 1024.5 0.0
17/12:30am 10.6 6.4 5.8 72 2.2 WSW 17 20 9 11 1024.3 1024.7 0.0
17/12:00am 10.7 7.3 5.7 71 2.3 WSW 13 17 7 9 1024.5 1024.9 0.0
 
Date/Time
EST
Temp
°C
App
Temp
°C
Dew
Point
°C
Rel
Hum
%
Delta-T
°C
Wind Press
QNH
hPa
Press
MSL
hPa
Rain since
9am
mm
Dir  Spd
km/h
Gust
km/h
Spd
kts
Gust
kts
16/11:30pm 10.8 6.6 5.6 70 2.4 WSW 17 20 9 11 1024.6 1025.0 0.0
16/11:00pm 10.8 6.2 5.8 71 2.3 WSW 19 24 10 13 1024.6 1025.0 0.0
16/10:30pm 10.8 6.6 5.6 70 2.4 WSW 17 24 9 13 1024.6 1025.0 0.0
16/10:00pm 11.0 6.4 5.7 70 2.5 WSW 19 24 10 13 1025.0 1025.3 0.0
16/09:30pm 11.1 6.9 5.8 70 2.5 WSW 17 22 9 12 1025.1 1025.4 0.0
16/09:00pm 11.2 7.0 5.7 69 2.6 WSW 17 24 9 13 1025.0 1025.3 0.0
16/08:30pm 11.3 7.1 5.8 69 2.6 WSW 17 22 9 12 1024.7 1025.1 0.0
16/08:00pm 11.3 7.6 6.2 71 2.4 WSW 15 19 8 10 1024.8 1025.2 0.0
16/07:30pm 11.4 7.3 6.3 71 2.4 WSW 17 20 9 11 1025.0 1025.3 0.0
16/07:00pm 11.5 7.7 6.0 69 2.6 WSW 15 20 8 11 1024.8 1025.2 0.0
16/06:30pm 11.6 8.3 6.3 70 2.5 SW 13 20 7 11 1024.5 1024.9 0.0
16/06:00pm 11.6 7.6 6.5 71 2.4 SW 17 20 9 11 1024.3 1024.7 0.0
16/05:30pm 11.6 6.6 6.3 70 2.5 WSW 22 32 12 17 1024.1 1024.5 0.0
16/05:00pm 12.0 6.6 6.5 69 2.6 WSW 24 33 13 18 1023.8 1024.2 0.0
16/04:30pm 12.4 6.5 6.0 65 3.0 WSW 26 33 14 18 1023.8 1024.2 0.0
16/04:00pm 12.8 6.9 5.7 62 3.3 SW 26 33 14 18 1023.7 1024.1 0.0
16/03:30pm 13.2 7.2 5.4 59 3.7 SW 26 35 14 19 1023.6 1024.0 0.0
16/03:00pm 13.3 7.8 5.9 61 3.5 SW 24 33 13 18 1023.5 1023.9 0.0
16/02:30pm 13.9 7.3 6.0 59 3.8 SW 30 35 16 19 1023.6 1024.0 0.0
16/02:00pm 13.2 7.0 6.3 63 3.3 WSW 28 35 15 19 1023.8 1024.2 0.0
16/01:30pm 14.0 7.7 7.5 65 3.2 WSW 30 37 16 20 1023.9 1024.3 0.0
16/01:00pm 13.4 8.2 7.4 67 2.9 WSW 24 33 13 18 1024.1 1024.5 0.0
16/12:30pm 12.2 7.2 8.1 76 2.0 WSW 24 30 13 16 1024.5 1024.9 0.0
16/12:00pm 12.2 6.9 8.5 78 1.8 WSW 26 33 14 18 1025.1 1025.4 0.0
16/11:30am 12.3 7.4 8.4 77 2.0 WSW 24 32 13 17 1025.6 1025.9 0.0
16/11:00am 11.8 7.4 8.8 82 1.5 WSW 22 28 12 15 1025.8 1026.1 0.0
16/10:30am 10.6 6.7 8.7 88 0.9 WSW 19 24 10 13 1026.0 1026.3 0.0
16/10:00am 10.6 6.7 8.5 87 1.0 WSW 19 26 10 14 1025.9 1026.2 0.0
16/09:30am 10.5 6.4 8.6 88 0.9 WSW 20 26 11 14 1025.7 1026.0 0.0
16/09:00am 9.9 6.3 8.5 91 0.7 WSW 17 24 9 13 1025.6 1025.9 0.0
16/08:30am 9.4 5.8 8.3 93 0.5 W 17 20 9 11 1025.3 1025.6 0.0
16/08:00am 9.0 6.0 7.9 93 0.5 W 13 19 7 10 1025.0 1025.3 0.0
16/07:30am 8.8 5.4 7.7 93 0.5 WSW 15 22 8 12 1024.8 1025.2 0.0
16/07:00am 8.8 5.0 7.6 92 0.6 WSW 17 24 9 13 1024.5 1024.9 0.0
16/06:30am 8.9 5.5 7.7 92 0.6 SW 15 20 8 11 1024.2 1024.6 0.0
16/06:00am 9.0 5.2 7.6 91 0.7 WSW 17 26 9 14 1023.9 1024.3 0.0
16/05:30am 9.0 6.0 7.5 90 0.7 WSW 13 17 7 9 1023.5 1023.9 0.0
16/05:00am 9.2 6.5 7.2 87 0.9 W 11 15 6 8 1023.6 1024.0 0.0
16/04:30am 9.2 6.0 7.0 86 1.0 W 13 19 7 10 1023.6 1024.0 0.0
16/04:00am 8.7 5.8 6.3 85 1.1 W 11 13 6 7 1023.5 1023.9 0.0
16/03:30am 8.5 6.0 6.5 87 0.9 SW 9 11 5 6 1023.6 1024.0 0.0
16/03:00am 8.2 5.6 6.0 86 1.0 W 9 11 5 6 1023.7 1024.1 0.0
16/02:30am 8.2 4.8 5.8 85 1.1 WSW 13 17 7 9 1023.9 1024.3 0.0
16/02:00am 8.1 4.7 5.7 85 1.1 W 13 15 7 8 1024.5 1024.9 0.0
16/01:30am 8.4 5.3 5.7 83 1.2 W 11 13 6 7 1024.7 1025.1 0.0
16/01:00am 8.9 5.4 5.6 80 1.5 WSW 13 19 7 10 1025.0 1025.3 0.0
16/12:30am 9.3 5.5 6.0 80 1.5 WSW 15 19 8 10 1025.3 1025.6 0.0
16/12:00am 8.5 5.1 6.0 84 1.1 WSW 13 15 7 8 1025.5 1025.8 0.0
 
Date/Time
EST
Temp
°C
App
Temp
°C
Dew
Point
°C
Rel
Hum
%
Delta-T
°C
Wind Press
QNH
hPa
Press
MSL
hPa
Rain since
9am
mm
Dir  Spd
km/h
Gust
km/h
Spd
kts
Gust
kts
15/11:30pm 6.9 3.2 4.7 86 1.0 WSW 13 15 7 8 1025.7 1026.0 0.0
15/11:00pm 6.6 3.6 4.3 85 1.0 W 9 11 5 6 1025.8 1026.1 0.0
15/10:30pm 7.1 4.5 4.4 83 1.2 WNW 7 9 4 5 1025.8 1026.1 0.0
15/10:00pm 6.9 4.3 4.0 82 1.2 W 7 9 4 5 1025.9 1026.2 0.0
15/09:30pm 7.6 5.3 4.6 81 1.3 W 6 7 3 4 1025.8 1026.1 0.0
15/09:00pm 8.2 4.9 4.4 77 1.7 WSW 11 13 6 7 1025.7 1026.0 0.0
15/08:30pm 8.8 5.8 4.2 73 2.0 WSW 9 9 5 5 1025.4 1025.7 0.0
15/08:00pm 9.4 5.7 4.2 70 2.3 SW 13 17 7 9 1025.0 1025.3 0.0
15/07:30pm 10.1 6.0 4.3 67 2.6 SW 15 19 8 10 1025.0 1025.3 0.0
15/07:00pm 10.9 6.4 4.4 64 2.9 WSW 17 20 9 11 1024.5 1024.9 0.0
15/06:30pm 11.5 7.0 4.3 61 3.3 WSW 17 22 9 12 1024.5 1024.9 0.0
15/06:00pm 11.1 7.4 4.3 63 3.1 WSW 13 15 7 8 1024.2 1024.6 0.0
15/05:30pm 12.1 6.2 3.9 57 3.7 WSW 24 30 13 16 1023.8 1024.2 0.0
15/05:00pm 12.5 7.4 4.0 56 3.9 SW 20 28 11 15 1023.7 1024.1 0.0

Other formats

Comma delimited format used in spreadsheet applications
http://www.bom.gov.au/fwo/IDN60801/IDN60801.95708.axf

JavaScript Object Notation format (JSON) in row-major order
http://www.bom.gov.au/fwo/IDN60801/IDN60801.95708.json

Data quality

Most of these data are generated automatically and are frequently updated. Quality checks on data are not normally performed. It is possible for incorrect values to appear. Refer to information at About Latest Weather Observations and please check the disclaimer before using these data.